createdAt,value
2022-09-05T00:00:19.381Z,147313.44
2022-09-05T00:03:20.080Z,147311.00
2022-09-05T00:06:01.968Z,147311.00
2022-09-05T00:08:42.681Z,147309.75
2022-09-05T00:11:40.659Z,147292.69
2022-09-05T00:15:16.685Z,147275.59
2022-09-05T00:19:28.444Z,147270.72
2022-09-05T00:24:20.309Z,147282.88
2022-09-05T00:24:54.742Z,147248.75
2022-09-05T00:27:32.099Z,147238.94
2022-09-05T00:31:51.533Z,147246.28
2022-09-05T00:33:17.874Z,147241.34
2022-09-05T00:36:08.729Z,147253.63
2022-09-05T00:38:40.961Z,147155.97
2022-09-05T00:41:13.634Z,147227.91
2022-09-05T00:43:42.316Z,147199.84
2022-09-05T00:46:26.585Z,147190.09
2022-09-05T00:49:28.787Z,147179.13
2022-09-05T00:51:58.821Z,147173.00
2022-09-05T00:54:47.105Z,147160.84
2022-09-05T00:57:30.610Z,147158.38
2022-09-05T01:00:18.172Z,147126.66
2022-09-05T01:02:51.609Z,147131.53
2022-09-05T01:05:44.934Z,147102.25
2022-09-05T01:08:46.198Z,147099.78
2022-09-05T01:11:35.682Z,147093.72
2022-09-05T01:14:30.678Z,147080.28
2022-09-05T01:17:22.047Z,147077.88
2022-09-05T01:20:29.912Z,147060.78
2022-09-05T01:23:27.217Z,147049.78
2022-09-05T01:26:07.803Z,147042.47
2022-09-05T01:29:16.217Z,147026.59
2022-09-05T01:32:15.315Z,147014.44
2022-09-05T01:34:57.649Z,146965.59
2022-09-05T01:37:48.509Z,147014.44
2022-09-05T01:40:51.565Z,147009.56
2022-09-05T01:44:00.013Z,146996.13
2022-09-05T01:46:39.204Z,146975.34
2022-09-05T01:49:53.247Z,146970.47
2022-09-05T01:53:04.623Z,146963.16
2022-09-05T01:56:04.353Z,146937.53
2022-09-05T01:58:57.957Z,146894.88
2022-09-05T02:01:39.902Z,146921.72
2022-09-05T02:04:12.858Z,146926.59
2022-09-05T02:07:19.354Z,146926.59
2022-09-05T02:10:07.978Z,146929.00
2022-09-05T02:12:43.997Z,146938.75
2022-09-05T02:15:37.852Z,146900.97
2022-09-05T02:18:11.094Z,146904.63
2022-09-05T02:20:41.102Z,146898.50
2022-09-05T02:23:41.822Z,146903.41
2022-09-05T02:26:24.194Z,146819.25
2022-09-05T02:29:10.774Z,146891.22
2022-09-05T02:31:49.367Z,146877.78
2022-09-05T02:34:25.522Z,146853.44
2022-09-05T02:37:03.310Z,146853.44
2022-09-05T02:45:03.689Z,146866.84
2022-09-05T02:45:19.265Z,146809.53
2022-09-05T02:45:49.302Z,146821.72
2022-09-05T02:48:31.752Z,146799.78
2022-09-05T02:57:25.701Z,146796.09
2022-09-05T02:57:35.412Z,146775.41
2022-09-05T02:58:04.561Z,146765.63
2022-09-05T02:59:54.187Z,146759.53
2022-09-05T03:02:39.922Z,146760.75
2022-09-05T03:05:25.258Z,146765.63
2022-09-05T03:07:58.514Z,146768.06
2022-09-05T03:10:55.372Z,146759.53
2022-09-05T03:14:06.398Z,146702.22
2022-09-05T03:17:24.466Z,146749.78
2022-09-05T03:20:32.567Z,146732.72
2022-09-05T03:23:23.494Z,146721.75
2022-09-05T03:26:27.238Z,146719.31
2022-09-05T03:29:13.077Z,146716.91
2022-09-05T03:32:06.462Z,146663.22
2022-09-05T03:35:16.986Z,146719.31
2022-09-05T03:38:34.836Z,146713.22
2022-09-05T03:41:16.627Z,146710.78
2022-09-05T03:43:55.811Z,146693.69
2022-09-05T03:47:20.256Z,146668.09
2022-09-05T03:53:16.415Z,146682.69
2022-09-05T03:57:17.339Z,146648.59
2022-09-05T03:57:20.297Z,146674.16
2022-09-05T03:59:44.899Z,146649.81
2022-09-05T04:03:10.593Z,146646.13
2022-09-05T04:08:13.749Z,146597.44
2022-09-05T04:08:31.880Z,146637.59
2022-09-05T04:11:02.179Z,146652.28
2022-09-05T04:13:46.429Z,146648.59
2022-09-05T04:16:20.261Z,146624.19
2022-09-05T04:19:18.461Z,146634.00
2022-09-05T04:21:59.277Z,146594.97
2022-09-05T04:24:53.079Z,146592.56
2022-09-05T04:27:49.882Z,146609.59
2022-09-05T04:30:40.573Z,146602.31
2022-09-05T04:33:35.844Z,146597.44
2022-09-05T04:36:25.103Z,146607.19
2022-09-05T04:39:19.829Z,146602.31
2022-09-05T04:41:51.518Z,146581.56
2022-09-05T04:44:26.555Z,146529.22
2022-09-05T04:47:28.004Z,146586.44
2022-09-05T04:50:23.334Z,146597.44
2022-09-05T04:53:26.947Z,146557.22
2022-09-05T04:55:57.871Z,146582.78
2022-09-05T05:00:15.462Z,146590.09
2022-09-05T05:06:13.106Z,146604.72
2022-09-05T05:06:16.121Z,146601.06
2022-09-05T05:08:01.113Z,146580.38
2022-09-05T05:15:21.737Z,146597.44
2022-09-05T05:17:58.392Z,146549.91
2022-09-05T05:18:10.906Z,146631.53
2022-09-05T05:19:27.201Z,146635.19
2022-09-05T05:21:58.109Z,146682.69
2022-09-05T05:24:35.300Z,146687.56
2022-09-05T05:27:25.818Z,146703.44
2022-09-05T05:29:59.622Z,146672.97
2022-09-05T05:32:45.913Z,146677.81
2022-09-05T05:35:13.563Z,146709.50
2022-09-05T05:37:53.039Z,146729.06
2022-09-05T05:40:26.259Z,146721.75
2022-09-05T05:43:15.010Z,146712.03
2022-09-05T05:45:42.949Z,146719.31
2022-09-05T05:48:12.876Z,146746.13
2022-09-05T05:50:54.442Z,146762.00
2022-09-05T05:53:30.388Z,146757.13
2022-09-05T05:56:30.998Z,146785.16
2022-09-05T05:59:13.045Z,146819.25
2022-09-05T06:01:52.421Z,146819.25
2022-09-05T06:05:00.724Z,146868.03
2022-09-05T06:08:10.238Z,146890.00
2022-09-05T06:14:59.829Z,146960.72
2022-09-05T06:15:03.764Z,146879.00
2022-09-05T06:17:28.398Z,146965.59
2022-09-05T06:22:08.689Z,147009.56
2022-09-05T06:23:30.810Z,147026.59
2022-09-05T06:26:20.992Z,147099.78
2022-09-05T06:29:02.938Z,147138.84
2022-09-05T06:31:52.898Z,147173.00
2022-09-05T06:34:38.576Z,147171.78
2022-09-05T06:37:24.916Z,147187.69
2022-09-05T06:40:11.832Z,147209.63
2022-09-05T06:43:02.551Z,147248.75
2022-09-05T06:45:58.619Z,147290.22
2022-09-05T06:48:45.540Z,147306.09
2022-09-05T06:51:35.612Z,147304.88
2022-09-05T06:54:31.436Z,147319.50
2022-09-05T06:57:20.304Z,147314.63
2022-09-05T07:00:21.697Z,147379.34
2022-09-05T07:02:59.331Z,147415.97
2022-09-05T07:05:39.421Z,147462.41
2022-09-05T07:08:35.201Z,147492.94
2022-09-05T07:11:18.382Z,147512.53
2022-09-05T07:13:57.233Z,147529.59
2022-09-05T07:16:38.091Z,147519.81
2022-09-05T07:19:34.514Z,147536.94
2022-09-05T07:22:29.558Z,147582.16
2022-09-05T07:25:09.611Z,147660.31
2022-09-05T07:28:28.302Z,147684.75
2022-09-05T07:30:32.842Z,147727.53
2022-09-05T07:33:03.550Z,147739.78
2022-09-05T07:35:41.386Z,147798.47
2022-09-05T07:38:52.082Z,147838.81
2022-09-05T07:41:32.707Z,147891.34
2022-09-05T07:44:14.049Z,147947.63
2022-09-05T07:46:42.306Z,148011.22
2022-09-05T07:49:14.555Z,148008.78
2022-09-05T07:56:55.662Z,148104.19
2022-09-05T07:57:03.721Z,148171.50
2022-09-05T07:57:50.996Z,148221.66
2022-09-05T08:00:26.864Z,148273.06
2022-09-05T08:03:09.202Z,148322.03
2022-09-05T08:05:40.807Z,148308.56
2022-09-05T08:08:13.322Z,148395.50
2022-09-05T08:11:23.217Z,148405.28
2022-09-05T08:13:40.020Z,148492.22
2022-09-05T08:16:13.624Z,148527.75
2022-09-05T08:18:54.641Z,148569.41
2022-09-05T08:21:28.169Z,148565.72
2022-09-05T08:23:58.046Z,148611.06
2022-09-05T08:26:36.697Z,148691.91
2022-09-05T08:29:11.175Z,148650.22
2022-09-05T08:31:52.453Z,148755.63
2022-09-05T08:34:44.921Z,148792.38
2022-09-05T08:37:21.135Z,148829.13
2022-09-05T08:40:03.869Z,148834.03
2022-09-05T08:45:52.017Z,148876.97
2022-09-05T08:46:43.899Z,148922.34
2022-09-05T08:49:36.885Z,148951.75
2022-09-05T08:52:42.919Z,148956.66
2022-09-05T08:55:30.359Z,148988.53
2022-09-05T08:58:27.412Z,148945.63
2022-09-05T09:01:36.853Z,149033.88
2022-09-05T09:05:02.175Z,149064.56
2022-09-05T09:07:51.535Z,149083.00
2022-09-05T09:10:46.880Z,149086.63
2022-09-05T09:13:52.204Z,149125.88
2022-09-05T09:16:30.282Z,149150.41
2022-09-05T09:19:12.162Z,149143.06
2022-09-05T09:21:48.766Z,149121.00
2022-09-05T09:24:35.783Z,149187.19
2022-09-05T09:27:09.268Z,149223.97
2022-09-05T09:29:40.035Z,149187.19
2022-09-05T09:32:13.570Z,149275.53
2022-09-05T09:34:59.749Z,149270.63
2022-09-05T09:38:06.792Z,149292.72
2022-09-05T09:41:02.412Z,149346.72
2022-09-05T09:44:07.849Z,149377.41
2022-09-05T09:46:45.390Z,149351.63
2022-09-05T09:49:39.253Z,149437.56
2022-09-05T09:52:24.917Z,149381.03
2022-09-05T09:55:56.281Z,149415.47
2022-09-05T09:58:54.222Z,149505.03
2022-09-05T10:01:39.440Z,149523.44
2022-09-05T10:10:39.008Z,149560.25
2022-09-05T10:10:49.914Z,149570.06
2022-09-05T10:10:52.398Z,149442.47
2022-09-05T10:13:35.831Z,149565.16
2022-09-05T10:16:24.618Z,149604.50
2022-09-05T10:19:16.984Z,149565.16
2022-09-05T10:25:18.765Z,149837.84
2022-09-05T10:28:11.771Z,149695.38
2022-09-05T10:32:45.343Z,149832.91
2022-09-05T10:35:15.252Z,149744.50
2022-09-05T10:37:10.808Z,149746.97
2022-09-05T10:39:43.562Z,149858.72
2022-09-05T10:42:17.097Z,149850.09
2022-09-05T10:44:55.945Z,149832.91
2022-09-05T10:47:53.802Z,149734.69
2022-09-05T10:50:28.966Z,149749.41
2022-09-05T10:53:06.446Z,149724.81
2022-09-05T10:55:52.406Z,149751.88
2022-09-05T11:02:18.707Z,149759.22
2022-09-05T11:02:29.554Z,149750.66
2022-09-05T11:04:51.207Z,149683.06
2022-09-05T11:07:27.879Z,149690.47
2022-09-05T11:10:02.901Z,149845.19
2022-09-05T11:12:34.000Z,149931.25
2022-09-05T11:15:06.618Z,150007.38
2022-09-05T11:18:03.804Z,150059.06
2022-09-05T11:21:12.129Z,150017.22
2022-09-05T11:23:47.568Z,150029.50
2022-09-05T11:26:33.579Z,150034.41
2022-09-05T11:29:14.088Z,149907.91
2022-09-05T11:36:35.289Z,149973.00
2022-09-05T11:37:59.705Z,150149.97
2022-09-05T11:40:10.677Z,150078.72
2022-09-05T11:41:08.479Z,150136.44
2022-09-05T11:43:57.430Z,150073.81
2022-09-05T11:46:58.346Z,150115.59
2022-09-05T11:50:19.415Z,149930.03
2022-09-05T11:52:51.374Z,149890.69
2022-09-05T11:55:33.135Z,149840.28
2022-09-05T11:58:43.842Z,149852.59
2022-09-05T12:01:42.228Z,149887.00
2022-09-05T12:04:29.422Z,149804.66
2022-09-05T12:07:26.355Z,149889.47
2022-09-05T12:10:47.280Z,149953.38
2022-09-05T12:13:21.733Z,150012.28
2022-09-05T12:18:55.124Z,150115.59
2022-09-05T12:21:42.527Z,150169.66
2022-09-05T12:25:24.153Z,150179.50
2022-09-05T12:27:41.088Z,150149.97
2022-09-05T12:30:14.187Z,150172.09
2022-09-05T12:36:02.885Z,150145.06
2022-09-05T12:36:07.543Z,150154.88
2022-09-05T12:40:25.373Z,150149.97
2022-09-05T12:41:41.217Z,150022.16
2022-09-05T12:42:14.678Z,150186.88
2022-09-05T12:45:09.128Z,150159.78
2022-09-05T12:48:04.038Z,150221.31
2022-09-05T12:50:43.274Z,150195.50
2022-09-05T12:53:18.346Z,150177.00
2022-09-05T12:57:50.335Z,150154.88
2022-09-05T13:03:04.769Z,150169.66
2022-09-05T13:03:08.221Z,150201.63
2022-09-05T13:04:51.268Z,150163.50
2022-09-05T13:07:43.998Z,150098.38
2022-09-05T13:14:33.493Z,150172.09
2022-09-05T13:14:53.765Z,150127.84
2022-09-05T13:16:24.922Z,150068.91
2022-09-05T13:19:02.246Z,150132.81
2022-09-05T13:21:31.178Z,150162.28
2022-09-05T13:24:05.116Z,150174.56
2022-09-05T13:26:37.898Z,150184.44
2022-09-05T13:29:16.046Z,150159.78
2022-09-05T13:37:53.927Z,150142.63
2022-09-05T13:37:58.216Z,150089.75
2022-09-05T13:38:29.263Z,149921.41
2022-09-05T13:40:48.834Z,149964.41
2022-09-05T13:43:29.552Z,150022.16
2022-09-05T13:46:06.313Z,150066.41
2022-09-05T13:51:41.596Z,150104.50
2022-09-05T13:54:38.182Z,150115.59
2022-09-05T13:57:32.362Z,150106.97
2022-09-05T14:00:15.401Z,150132.81
2022-09-05T14:03:37.961Z,150135.22
2022-09-05T14:06:47.126Z,150027.06
2022-09-05T14:09:39.297Z,150113.09
2022-09-05T14:12:37.264Z,150159.78
2022-09-05T14:15:24.873Z,150110.66
2022-09-05T14:18:20.471Z,150040.63
2022-09-05T14:21:17.283Z,150062.72
2022-09-05T14:23:55.951Z,150051.69
2022-09-05T14:26:29.104Z,150066.41
2022-09-05T14:29:19.555Z,150093.47
2022-09-05T14:37:38.656Z,150180.72
2022-09-05T14:37:40.298Z,150204.09
2022-09-05T14:38:30.272Z,150245.91
2022-09-05T14:41:25.619Z,150266.81
2022-09-05T14:44:37.842Z,150209.03
2022-09-05T14:47:36.290Z,150285.25
2022-09-05T14:50:18.294Z,150265.53
2022-09-05T14:57:23.074Z,150212.72
2022-09-05T15:02:52.292Z,150148.75
2022-09-05T15:02:58.665Z,150183.16
2022-09-05T15:05:13.323Z,150145.06
2022-09-05T15:07:43.932Z,150120.50
2022-09-05T15:12:18.511Z,150115.59
2022-09-05T15:13:02.973Z,150105.75
2022-09-05T15:15:35.760Z,150102.06
2022-09-05T15:18:09.983Z,150200.41
2022-09-05T15:20:43.829Z,150202.88
2022-09-05T15:23:28.317Z,150234.84
2022-09-05T15:26:00.989Z,150222.53
2022-09-05T15:28:36.034Z,150231.16
2022-09-05T15:31:10.530Z,150249.59
2022-09-05T15:33:40.718Z,150228.69
2022-09-05T15:36:13.333Z,150317.22
2022-09-05T15:38:54.868Z,150351.66
2022-09-05T15:41:27.824Z,150372.59
2022-09-05T15:43:58.313Z,150452.50
2022-09-05T15:46:34.244Z,150548.47
2022-09-05T15:49:06.470Z,150600.13
2022-09-05T15:51:51.644Z,150666.59
2022-09-05T15:54:50.391Z,150843.84
2022-09-05T15:57:39.921Z,150755.22
2022-09-05T16:00:10.209Z,150520.19
2022-09-05T16:02:45.924Z,150329.53
2022-09-05T16:10:28.408Z,150158.59
2022-09-05T16:10:37.063Z,150173.31
2022-09-05T16:12:03.491Z,150223.75
2022-09-05T16:14:23.890Z,150034.41
2022-09-05T16:23:20.711Z,149889.47
2022-09-05T16:23:34.524Z,149981.63
2022-09-05T16:23:39.296Z,150009.88
2022-09-05T16:26:24.954Z,150446.38
2022-09-05T16:29:13.275Z,150689.97
2022-09-05T16:32:27.537Z,150942.34
2022-09-05T16:34:57.663Z,151053.19
2022-09-05T16:37:30.015Z,151109.81
2022-09-05T16:40:00.025Z,151208.41
2022-09-05T16:42:46.065Z,150928.81
2022-09-05T16:45:50.152Z,150816.78
2022-09-05T16:48:39.049Z,150829.03
2022-09-05T16:51:35.827Z,150973.13
2022-09-05T16:54:26.247Z,150947.28
2022-09-05T16:57:02.479Z,151065.50
2022-09-05T16:59:32.875Z,150994.03
2022-09-05T17:02:07.363Z,150629.69
2022-09-05T17:05:04.383Z,150333.22
2022-09-05T17:07:50.972Z,150122.94
2022-09-05T17:10:21.606Z,149977.91
2022-09-05T17:12:53.129Z,149885.75
2022-09-05T17:15:26.189Z,149751.88
2022-09-05T17:18:31.854Z,149748.19
2022-09-05T17:21:02.762Z,149636.44
2022-09-05T17:29:20.504Z,149631.53
2022-09-05T17:29:24.590Z,149574.97
2022-09-05T17:32:47.161Z,149475.59
2022-09-05T17:35:51.487Z,149481.72
2022-09-05T17:38:40.437Z,149435.09
2022-09-05T17:41:20.325Z,149356.53
2022-09-05T17:43:58.450Z,149355.31
2022-09-05T17:46:31.829Z,149317.28
2022-09-05T17:49:19.131Z,149253.50
2022-09-05T17:51:53.246Z,149260.81
2022-09-05T17:54:30.597Z,149233.78
2022-09-05T17:57:26.463Z,149221.56
2022-09-05T17:59:54.918Z,149179.84
2022-09-05T18:02:21.951Z,149177.38
2022-09-05T18:04:51.522Z,149066.97
2022-09-05T18:07:31.045Z,149101.38
2022-09-05T18:13:13.713Z,149054.69
2022-09-05T18:15:38.347Z,149022.88
2022-09-05T18:18:08.657Z,148992.22
2022-09-05T18:21:12.296Z,148962.75
2022-09-05T18:24:00.381Z,148988.53
2022-09-05T18:26:28.317Z,148923.56
2022-09-05T18:29:03.891Z,148927.25
2022-09-05T18:31:41.463Z,148907.59
2022-09-05T18:34:15.607Z,148887.97
2022-09-05T18:36:44.237Z,148885.53
2022-09-05T18:39:24.632Z,148912.56
2022-09-05T18:42:33.841Z,148907.59
2022-09-05T18:45:01.046Z,148885.53
2022-09-05T18:47:52.745Z,148826.72
2022-09-05T18:50:29.212Z,148760.50
2022-09-05T18:53:10.340Z,148742.13
2022-09-05T18:56:14.287Z,148709.03
2022-09-05T18:59:10.117Z,148694.34
2022-09-05T19:01:43.538Z,148674.75
2022-09-05T19:04:40.868Z,148644.13
2022-09-05T19:07:18.558Z,148650.22
2022-09-05T19:10:35.527Z,148672.28
2022-09-05T19:13:15.691Z,148671.06
2022-09-05T19:15:53.299Z,148652.69
2022-09-05T19:18:34.870Z,148650.22
2022-09-05T19:21:12.521Z,148664.97
2022-09-05T19:23:50.344Z,148595.09
2022-09-05T19:26:17.844Z,148536.31
2022-09-05T19:36:49.723Z,148525.25
2022-09-05T19:36:50.138Z,148526.53
2022-09-05T19:37:03.296Z,148410.19
2022-09-05T19:37:39.946Z,148396.72
2022-09-05T19:46:22.420Z,148380.81
2022-09-05T19:47:42.235Z,148356.31
2022-09-05T19:47:50.283Z,148390.63
2022-09-05T19:49:11.980Z,148280.41
2022-09-05T19:51:43.682Z,148351.41
2022-09-05T19:54:32.239Z,148356.31
2022-09-05T19:57:05.815Z,148339.16
2022-09-05T19:59:41.945Z,148323.22
2022-09-05T20:02:20.161Z,148309.78
2022-09-05T20:04:52.873Z,148225.34
2022-09-05T20:07:27.235Z,148264.47
2022-09-05T20:09:56.103Z,148219.25
2022-09-05T20:12:35.739Z,148221.66
2022-09-05T20:15:35.897Z,148215.56
2022-09-05T20:18:24.500Z,148241.22
2022-09-05T20:21:04.076Z,148207.00
2022-09-05T20:23:32.190Z,148197.22
2022-09-05T20:26:00.822Z,148189.84
2022-09-05T20:28:35.689Z,148182.53
2022-09-05T20:31:08.942Z,148147.06
2022-09-05T20:33:58.370Z,148148.25
2022-09-05T20:43:07.737Z,148089.50
2022-09-05T20:43:23.804Z,148110.31
2022-09-05T20:43:36.696Z,148038.13
2022-09-05T20:45:01.132Z,148046.69
2022-09-05T20:52:08.860Z,148034.44
2022-09-05T20:54:14.764Z,148013.69
2022-09-05T20:54:21.138Z,148025.94
2022-09-05T20:56:23.412Z,148014.91
2022-09-05T20:58:51.578Z,147964.75
2022-09-05T21:01:23.417Z,147967.22
2022-09-05T21:04:02.470Z,147947.63
2022-09-05T21:06:34.484Z,147930.50
2022-09-05T21:09:23.829Z,147926.81
2022-09-05T21:11:52.675Z,147931.72
2022-09-05T21:14:21.537Z,147915.84
2022-09-05T21:16:57.300Z,147888.94
2022-09-05T21:19:26.737Z,147859.56
2022-09-05T21:22:16.379Z,147827.78
2022-09-05T21:24:46.437Z,147791.09
2022-09-05T21:27:16.602Z,147792.38
2022-09-05T21:29:44.485Z,147750.81
2022-09-05T21:32:20.713Z,147700.66
2022-09-05T21:34:52.089Z,147749.56
2022-09-05T21:37:20.871Z,147725.13
2022-09-05T21:39:59.753Z,147722.66
2022-09-05T21:45:12.677Z,147661.53
2022-09-05T21:47:49.748Z,147703.06
2022-09-05T21:48:15.546Z,147712.84
2022-09-05T21:50:45.451Z,147720.25
2022-09-05T21:56:38.675Z,147683.53
2022-09-05T21:59:22.716Z,147664.00
2022-09-05T21:59:27.971Z,147698.19
2022-09-05T22:01:55.283Z,147682.34
2022-09-05T22:04:22.521Z,147628.56
2022-09-05T22:06:52.935Z,147681.06
2022-09-05T22:09:22.267Z,147678.66
2022-09-05T22:11:52.722Z,147700.66
2022-09-05T22:14:22.189Z,147678.66
2022-09-05T22:16:52.127Z,147685.97
2022-09-05T22:19:26.211Z,147676.19
2022-09-05T22:22:15.672Z,147682.34
2022-09-05T22:25:06.261Z,147688.44
2022-09-05T22:27:35.342Z,147642.00
2022-09-05T22:30:04.344Z,147692.09
2022-09-05T22:32:34.471Z,147671.31
2022-09-05T22:35:26.846Z,147652.97
2022-09-05T22:38:03.514Z,147535.72
2022-09-05T22:40:32.676Z,147643.22
2022-09-05T22:43:02.243Z,147656.66
2022-09-05T22:45:30.907Z,147595.59
2022-09-05T22:47:58.779Z,147579.69
2022-09-05T22:50:26.748Z,147566.25
2022-09-05T22:52:53.857Z,147525.91
2022-09-05T22:55:20.927Z,147519.81
2022-09-05T22:57:47.993Z,147527.16
2022-09-05T23:00:15.326Z,147523.50
2022-09-05T23:02:42.351Z,147532.06
2022-09-05T23:05:09.622Z,147477.06
2022-09-05T23:07:36.675Z,147473.38
2022-09-05T23:10:04.032Z,147507.59
2022-09-05T23:12:35.886Z,147490.53
2022-09-05T23:15:03.311Z,147514.94
2022-09-05T23:17:30.422Z,147539.34
2022-09-05T23:19:57.558Z,147495.41
2022-09-05T23:22:24.631Z,147490.53
2022-09-05T23:24:51.747Z,147490.53
2022-09-05T23:27:18.760Z,147475.84
2022-09-05T23:29:45.803Z,147414.75
2022-09-05T23:32:12.842Z,147470.91
2022-09-05T23:34:39.854Z,147437.94
2022-09-05T23:37:08.680Z,147483.13
2022-09-05T23:39:35.796Z,147469.69
2022-09-05T23:42:03.148Z,147444.09
2022-09-05T23:44:30.217Z,147475.84
2022-09-05T23:46:57.318Z,147434.28
2022-09-05T23:49:24.365Z,147444.09
2022-09-05T23:51:51.424Z,147424.50
2022-09-05T23:54:18.516Z,147450.19
2022-09-05T23:56:45.639Z,147437.94
2022-09-05T23:59:12.802Z,147386.69
